Terminal Aerodrome Forecast
Issued by NWS

Home | Current Version | Previous Version | Text Only | Print | Product List | Glossary On
Versions: 1 2 3 4 5 6 7 8 9 10 11 12 13 14
000
FTUS45 KPSR 251736
TAFSDL
TAF
KSDL 251736Z 2518/2618 06010KT P6SM SKC
      TEMPO 2518/2520 06014G22KT
     FM260200 02005KT P6SM SKC
     FM260500 06010KT P6SM SCT250=

USA.gov is the U.S. government's official web portal to all federal, state and local government web resources and services.